Time;durP1;ratioP1;P1;durP2;ratioP2;P2;SDS_P1;SDS_P2;PMS_P1;PMS_P2;Temp;Humidity;BMP_temperature;BMP_pressure;BME280_temperature;BME280_humidity;BME280_pressure;Samples;Min_cycle;Max_cycle;Signal;HPM_P1;HPM_P2
2023/10/19 00:03:03;;;;;;;0.52;0.47;;;;;;;1.35;64.55;97039.28;6297105;28;20044;-66
2023/10/19 00:06:07;;;;;;;0.60;0.45;;;;;;;1.39;64.30;97037.47;6297874;28;20457;-67
2023/10/19 00:09:11;;;;;;;0.45;0.40;;;;;;;1.38;64.07;97048.72;6296567;28;20067;-66
2023/10/19 00:12:15;;;;;;;2.30;0.70;;;;;;;1.23;64.19;97045.66;6297041;28;20045;-67
2023/10/19 00:15:23;;;;;;;1.00;0.65;;;;;;;1.15;64.88;97052.75;6297429;28;20040;-68
2023/10/19 00:18:27;;;;;;;1.50;0.70;;;;;;;1.17;64.79;97056.16;6297620;28;20048;-67
2023/10/19 00:21:43;;;;;;;;;;;;;;;1.28;64.40;97056.75;6297754;28;20041;-66
2023/10/19 00:24:50;;;;;;;2.55;0.50;;;;;;;1.11;65.04;97054.56;6296556;28;19924;-67
2023/10/19 00:27:54;;;;;;;1.75;0.80;;;;;;;0.99;65.68;97061.78;6297678;28;20066;-67
2023/10/19 00:31:03;;;;;;;0.65;0.65;;;;;;;1.08;65.43;97062.44;6296532;28;20071;-67
2023/10/19 00:34:07;;;;;;;1.40;0.63;;;;;;;1.00;65.33;97069.53;6296407;28;20048;-67
2023/10/19 00:37:19;;;;;;;2.15;0.90;;;;;;;0.96;65.58;97074.81;6296351;28;20056;-67
2023/10/19 00:40:34;;;;;;;2.45;0.80;;;;;;;0.92;65.57;97070.59;6278908;28;20051;-68
2023/10/19 00:43:49;;;;;;;1.92;0.57;;;;;;;0.88;65.89;97068.09;6296538;28;20121;-68
2023/10/19 00:47:03;;;;;;;0.88;0.70;;;;;;;0.83;65.71;97080.28;6296295;28;20052;-67
2023/10/19 00:50:21;;;;;;;1.20;0.80;;;;;;;0.82;65.59;97085.50;6279673;28;20044;-68
2023/10/19 00:53:26;;;;;;;2.30;0.60;;;;;;;0.89;65.88;97077.56;6296779;28;20056;-67
2023/10/19 00:56:32;;;;;;;0.90;0.80;;;;;;;0.71;66.01;97072.81;6295592;28;20052;-68
2023/10/19 00:59:44;;;;;;;0.82;0.70;;;;;;;0.75;66.20;97089.97;6296199;28;20053;-67
2023/10/19 01:02:51;;;;;;;0.88;0.63;;;;;;;0.61;66.56;97076.47;6295961;28;20048;-68
2023/10/19 01:05:57;;;;;;;1.30;0.82;;;;;;;0.40;66.45;97055.34;6295673;28;20045;-67
2023/10/19 01:08:59;;;;;;;1.20;0.70;;;;;;;0.51;66.82;97080.13;6295706;28;20059;-67
2023/10/19 01:12:51;;;;;;;0.98;0.52;;;;;;;0.21;67.68;97079.91;6296342;28;20495;-68
2023/10/19 01:18:32;;;;;;;0.80;0.70;;;;;;;-0.18;67.07;97043.59;6295797;28;20048;-68
2023/10/19 01:21:37;;;;;;;1.20;0.60;;;;;;;0.03;68.13;97067.34;6295091;28;20503;-67
2023/10/19 01:24:41;;;;;;;1.08;0.40;;;;;;;0.16;67.33;97080.00;6296180;28;20427;-67
2023/10/19 01:27:48;;;;;;;0.40;0.40;;;;;;;-0.02;67.67;97076.06;6278576;28;20042;-67
2023/10/19 01:30:53;;;;;;;0.95;0.60;;;;;;;-0.10;67.99;97085.69;6295532;28;20506;-67
2023/10/19 01:33:59;;;;;;;1.45;0.73;;;;;;;-0.28;68.64;97083.47;6295294;28;20048;-67
2023/10/19 01:37:06;;;;;;;1.05;0.70;;;;;;;-0.33;68.43;97085.28;6295025;28;20526;-67
2023/10/19 01:40:08;;;;;;;2.22;0.70;;;;;;;-0.34;68.35;97094.78;6295261;28;20052;-67
2023/10/19 01:43:10;;;;;;;0.77;0.77;;;;;;;-0.36;68.36;97095.69;6294973;28;20060;-68
2023/10/19 01:46:24;;;;;;;1.00;0.75;;;;;;;-0.34;68.84;97088.72;6278182;28;20040;-67
2023/10/19 01:49:27;;;;;;;0.60;0.52;;;;;;;-0.29;68.66;97087.78;6276808;28;20052;-68
2023/10/19 01:52:32;;;;;;;1.08;0.63;;;;;;;-0.33;68.78;97087.88;6294956;28;20101;-67
2023/10/19 01:55:38;;;;;;;0.93;0.50;;;;;;;-0.22;69.12;97093.69;6294056;28;20543;-67
2023/10/19 01:58:40;;;;;;;2.53;0.90;;;;;;;-0.12;68.50;97097.78;6276864;28;20052;-68
2023/10/19 02:01:45;;;;;;;0.90;0.65;;;;;;;-0.08;68.74;97096.88;6294371;28;20516;-67
2023/10/19 02:04:51;;;;;;;0.77;0.55;;;;;;;-0.09;68.38;97095.16;6294383;28;20044;-67
2023/10/19 02:07:54;;;;;;;1.00;0.65;;;;;;;-0.22;68.29;97093.69;6276715;28;20040;-68
2023/10/19 02:10:57;;;;;;;1.90;0.47;;;;;;;-0.43;69.17;97088.91;6293534;28;20055;-67
2023/10/19 02:14:04;;;;;;;2.08;1.00;;;;;;;-0.24;68.89;97088.53;6294763;28;20044;-67
2023/10/19 02:17:11;;;;;;;0.90;0.75;;;;;;;-0.27;68.66;97091.19;6294312;28;20048;-69
2023/10/19 02:20:17;;;;;;;0.50;0.50;;;;;;;-0.14;68.82;97091.81;6294475;28;20522;-66
2023/10/19 02:23:23;;;;;;;3.17;1.17;;;;;;;-0.31;68.64;97088.66;6294751;28;20036;-67
2023/10/19 02:26:30;;;;;;;1.10;0.80;;;;;;;-0.35;68.62;97103.41;6294553;28;20032;-67
2023/10/19 02:29:38;;;;;;;4.30;0.90;;;;;;;-0.29;68.67;97094.69;6294503;28;20048;-68
2023/10/19 02:32:43;;;;;;;2.05;0.70;;;;;;;-0.33;68.62;97105.97;6293813;28;20339;-67
2023/10/19 02:35:51;;;;;;;0.40;0.40;;;;;;;-0.23;68.31;97091.97;6294182;28;20171;-67
2023/10/19 02:39:08;;;;;;;0.77;0.60;;;;;;;-0.38;68.17;97089.69;6294151;28;20135;-67
2023/10/19 02:42:10;;;;;;;0.82;0.60;;;;;;;-0.32;68.78;97086.97;6293033;28;20057;-67
2023/10/19 02:45:18;;;;;;;;;;;;;;;-0.02;67.64;97094.16;6294541;28;20037;-67
2023/10/19 02:48:21;;;;;;;1.17;0.80;;;;;;;-0.16;67.58;97091.00;6276401;28;19920;-67
2023/10/19 02:51:26;;;;;;;1.33;0.50;;;;;;;-0.01;68.09;97072.56;6293333;28;20055;-68
2023/10/19 02:54:34;;;;;;;1.58;0.90;;;;;;;0.07;67.25;97081.94;6294069;28;20059;-67
2023/10/19 02:57:46;;;;;;;1.17;0.80;;;;;;;-0.33;67.27;97018.06;6293330;28;20054;-68
2023/10/19 03:00:51;;;;;;;1.53;0.70;;;;;;;0.05;67.06;97087.13;6260271;28;20550;-67
2023/10/19 03:03:59;;;;;;;1.65;0.68;;;;;;;0.25;66.39;97093.63;6294034;28;20411;-67
2023/10/19 03:07:12;;;;;;;5.45;0.80;;;;;;;0.21;66.79;97113.56;6276336;28;20040;-66
2023/10/19 03:10:33;;;;;;;0.55;0.47;;;;;;;0.40;66.59;97073.47;6293802;28;20536;-67
2023/10/19 03:13:38;;;;;;;1.65;0.68;;;;;;;0.41;65.68;97107.97;6292966;28;20052;-67
2023/10/19 03:16:42;;;;;;;;;;;;;;;0.74;64.57;97110.75;6275660;28;20300;-67
2023/10/19 03:19:43;;;;;;;1.13;0.33;;;;;;;0.73;65.02;97122.81;6293632;28;20387;-67
2023/10/19 03:22:50;;;;;;;1.02;0.63;;;;;;;0.71;65.04;97134.97;6293660;28;20438;-68
2023/10/19 03:26:18;;;;;;;2.45;0.90;;;;;;;1.15;64.35;97140.88;6292862;28;20067;-68
2023/10/19 03:29:19;;;;;;;0.90;0.65;;;;;;;1.40;63.23;97135.97;6293334;28;20037;-68
2023/10/19 03:32:27;;;;;;;2.13;0.73;;;;;;;1.23;63.34;97128.59;6293611;28;20430;-67
2023/10/19 03:35:29;;;;;;;1.40;0.70;;;;;;;1.15;64.04;97140.03;6292349;28;20051;-67
2023/10/19 03:38:34;;;;;;;0.63;0.45;;;;;;;1.27;63.58;97135.38;6293373;28;20048;-66
2023/10/19 03:41:36;;;;;;;1.95;0.82;;;;;;;1.14;64.03;97149.53;6292779;28;20044;-68
2023/10/19 03:47:55;;;;;;;1.50;0.77;;;;;;;1.04;64.47;97114.34;6292584;28;20056;-67
2023/10/19 03:50:56;;;;;;;1.13;0.90;;;;;;;1.03;64.24;97131.66;6292830;28;20044;-68
2023/10/19 03:54:03;;;;;;;1.02;0.60;;;;;;;0.95;64.70;97133.56;6293227;28;20052;-67
2023/10/19 03:57:19;;;;;;;1.88;1.02;;;;;;;1.22;64.53;97129.50;6293238;28;20041;-67
2023/10/19 04:00:24;;;;;;;0.70;0.70;;;;;;;1.35;64.09;97132.63;6292723;28;20048;-67
2023/10/19 04:03:31;;;;;;;3.83;0.85;;;;;;;1.26;63.97;97143.22;6293266;28;20040;-66
2023/10/19 04:06:34;;;;;;;1.63;0.70;;;;;;;1.31;63.80;97150.00;6292419;28;20437;-67
2023/10/19 04:09:49;;;;;;;0.52;0.52;;;;;;;1.45;63.45;97164.38;6293086;28;20033;-67
2023/10/19 04:12:54;;;;;;;1.63;0.82;;;;;;;1.49;63.22;97163.41;6275873;28;20500;-67
2023/10/19 04:15:56;;;;;;;0.68;0.57;;;;;;;1.70;63.00;97162.91;6292978;28;20040;-67
2023/10/19 04:19:04;;;;;;;0.30;0.30;;;;;;;2.03;62.03;97165.50;6292716;28;20040;-68
2023/10/19 04:22:21;;;;;;;0.50;0.50;;;;;;;2.17;62.01;97165.97;6297062;28;20162;-68
2023/10/19 04:25:26;;;;;;;1.10;0.88;;;;;;;2.37;61.52;97173.22;6296286;28;20048;-71
2023/10/19 04:28:30;;;;;;;1.90;0.80;;;;;;;2.51;61.14;97157.25;6296695;28;20174;-71
2023/10/19 04:31:32;;;;;;;0.80;0.68;;;;;;;2.51;60.69;97177.19;6278985;28;20396;-71
2023/10/19 04:34:39;;;;;;;0.70;0.50;;;;;;;2.56;60.68;97168.38;6296273;28;20044;-68
2023/10/19 04:37:42;;;;;;;0.75;0.65;;;;;;;2.62;60.39;97168.19;6297007;28;20431;-68
2023/10/19 04:40:52;;;;;;;2.33;0.80;;;;;;;2.64;60.66;97182.00;6296990;28;20106;-67
2023/10/19 04:43:58;;;;;;;0.60;0.60;;;;;;;3.29;58.78;97183.56;6279020;28;20147;-68
2023/10/19 04:47:02;;;;;;;1.98;0.90;;;;;;;3.64;57.70;97176.38;6296749;28;20040;-67
2023/10/19 04:50:07;;;;;;;1.08;0.63;;;;;;;4.19;56.14;97184.09;6296673;28;20044;-67
2023/10/19 04:53:08;;;;;;;2.08;0.60;;;;;;;4.60;54.98;97189.59;6295886;28;20052;-68
2023/10/19 04:56:15;;;;;;;1.13;0.60;;;;;;;4.77;53.76;97184.63;6296617;28;20040;-67
2023/10/19 04:59:16;;;;;;;2.80;0.65;;;;;;;4.82;53.73;97185.31;6295620;28;20436;-68
2023/10/19 05:02:19;;;;;;;1.48;0.70;;;;;;;5.20;53.13;97188.22;6295954;28;20045;-67
2023/10/19 05:05:20;;;;;;;1.63;0.75;;;;;;;5.48;52.25;97185.41;6296244;28;20527;-67
2023/10/19 05:08:27;;;;;;;1.92;1.20;;;;;;;5.44;52.07;97198.66;6295585;28;20098;-67
2023/10/19 05:11:32;;;;;;;0.70;0.40;;;;;;;5.44;51.63;97198.66;6296220;28;20520;-67
2023/10/19 05:14:37;;;;;;;1.40;0.80;;;;;;;5.87;50.95;97192.53;6295599;28;20191;-68
2023/10/19 05:17:41;;;;;;;0.98;0.70;;;;;;;5.93;50.87;97191.44;6295542;28;20048;-67
2023/10/19 05:20:44;;;;;;;1.85;0.77;;;;;;;5.92;50.95;97184.53;6296125;28;20127;-68
2023/10/19 05:23:45;;;;;;;3.00;0.73;;;;;;;5.80;51.26;97191.97;6295448;28;20542;-68
2023/10/19 05:26:53;;;;;;;0.75;0.63;;;;;;;5.97;50.02;97216.53;6296168;28;20040;-67
2023/10/19 05:30:04;;;;;;;1.23;1.00;;;;;;;5.83;50.28;97197.06;6295973;28;20045;-67
2023/10/19 05:33:11;;;;;;;1.05;0.52;;;;;;;5.85;49.76;97215.25;6294867;28;20143;-66
2023/10/19 05:36:17;;;;;;;1.85;1.00;;;;;;;5.84;49.84;97222.25;6294773;28;20044;-68
2023/10/19 05:39:27;;;;;;;2.85;0.95;;;;;;;5.97;49.62;97203.47;6294891;28;20099;-66
2023/10/19 05:42:34;;;;;;;1.52;0.70;;;;;;;6.16;49.22;97211.41;6294578;28;20049;-67
2023/10/19 05:45:42;;;;;;;1.75;0.85;;;;;;;6.19;48.26;97165.09;6295008;28;20052;-67
2023/10/19 05:48:45;;;;;;;1.38;0.60;;;;;;;6.64;48.51;97208.47;6295504;28;20047;-66
2023/10/19 05:51:52;;;;;;;2.22;0.95;;;;;;;7.73;47.07;97208.72;6295285;28;20049;-66
2023/10/19 05:54:57;;;;;;;0.73;0.57;;;;;;;9.74;42.42;97208.78;6293882;28;20427;-66
2023/10/19 05:58:04;;;;;;;2.92;0.60;;;;;;;12.38;36.96;97189.97;6294175;28;20133;-66
2023/10/19 06:01:10;;;;;;;0.95;0.50;;;;;;;15.03;32.62;97201.72;6295359;28;20044;-67
2023/10/19 06:04:14;;;;;;;2.95;0.73;;;;;;;16.69;30.28;97207.78;6294498;28;20040;-67
2023/10/19 06:07:18;;;;;;;1.13;0.60;;;;;;;18.40;27.46;97210.56;6295150;28;20044;-66
2023/10/19 06:10:22;;;;;;;0.52;0.50;;;;;;;20.22;26.21;97217.47;6294018;28;20059;-67
2023/10/19 06:13:29;;;;;;;1.33;0.70;;;;;;;21.38;24.83;97203.06;6294661;28;20127;-68
2023/10/19 06:16:34;;;;;;;3.17;0.95;;;;;;;21.49;23.23;97218.84;6294758;28;20462;-67
2023/10/19 06:19:38;;;;;;;3.05;1.10;;;;;;;22.27;22.79;97233.06;6294365;28;20504;-67
2023/10/19 06:22:39;;;;;;;0.80;0.65;;;;;;;23.35;21.53;97238.28;6293711;28;20185;-66
2023/10/19 06:25:44;;;;;;;1.65;0.68;;;;;;;23.70;21.28;97245.97;6293505;28;20063;-68
2023/10/19 06:28:47;;;;;;;1.52;0.50;;;;;;;21.65;22.16;97225.25;6293930;28;20048;-68
2023/10/19 06:31:49;;;;;;;1.88;0.50;;;;;;;20.55;23.34;97230.19;6293769;28;20178;-67
2023/10/19 06:34:53;;;;;;;2.38;0.60;;;;;;;19.43;24.31;97237.50;6293572;28;20071;-67
2023/10/19 06:37:57;;;;;;;1.35;0.50;;;;;;;19.07;25.07;97229.31;6293559;28;20060;-67
2023/10/19 06:41:10;;;;;;;1.05;0.40;;;;;;;17.64;26.84;97236.88;6294208;28;20503;-67
2023/10/19 06:44:17;;;;;;;0.47;0.47;;;;;;;16.51;28.34;97238.56;6293431;28;20044;-67
2023/10/19 06:47:20;;;;;;;1.17;0.75;;;;;;;19.06;25.33;97247.16;6294128;28;20427;-67
2023/10/19 06:50:25;;;;;;;1.35;0.40;;;;;;;19.83;24.72;97252.41;6294048;28;20048;-67
2023/10/19 06:53:32;;;;;;;1.13;0.55;;;;;;;19.51;24.81;97240.28;6293310;28;20546;-66
2023/10/19 06:56:38;;;;;;;1.15;0.73;;;;;;;20.53;24.21;97258.06;6293262;28;20467;-66
2023/10/19 06:59:40;;;;;;;1.90;0.50;;;;;;;22.57;22.14;97261.09;6293175;28;20059;-67
2023/10/19 07:02:49;;;;;;;1.17;0.40;;;;;;;22.42;21.58;97259.06;6275645;28;20044;-66
2023/10/19 07:05:53;;;;;;;1.17;0.40;;;;;;;21.76;22.46;97262.47;6294076;28;20048;-68
2023/10/19 07:08:55;;;;;;;1.98;0.60;;;;;;;21.43;22.70;97254.28;6275807;28;20527;-66
2023/10/19 07:12:00;;;;;;;1.00;0.50;;;;;;;22.44;21.76;97260.72;6293813;28;20423;-66
2023/10/19 07:15:07;;;;;;;1.33;0.60;;;;;;;22.83;21.23;97251.06;6292966;28;20439;-67
2023/10/19 07:18:09;;;;;;;2.65;0.50;;;;;;;22.80;20.97;97255.94;6293186;28;20423;-66
2023/10/19 07:21:17;;;;;;;1.17;0.50;;;;;;;21.94;21.97;97255.19;6293072;28;20423;-67
2023/10/19 07:24:23;;;;;;;3.15;0.70;;;;;;;22.90;21.13;97255.75;6293713;28;20048;-66
2023/10/19 07:27:29;;;;;;;1.25;0.38;;;;;;;25.13;18.69;97260.94;6293852;28;20127;-66
2023/10/19 07:30:34;;;;;;;1.20;0.50;;;;;;;26.00;18.31;97263.13;6293727;28;20048;-67
2023/10/19 07:33:38;;;;;;;0.30;0.25;;;;;;;26.07;17.83;97253.25;6292438;28;20060;-67
2023/10/19 07:36:42;;;;;;;0.50;0.30;;;;;;;25.48;18.56;97260.31;6293043;28;20508;-66
2023/10/19 07:39:52;;;;;;;0.43;0.20;;;;;;;24.79;18.99;97254.97;6292517;28;20063;-66
2023/10/19 07:42:56;;;;;;;0.85;0.30;;;;;;;25.22;18.56;97249.09;6293966;28;20045;-67
2023/10/19 07:46:01;;;;;;;0.38;0.30;;;;;;;27.04;17.02;97258.31;6292812;28;20516;-66
2023/10/19 07:49:07;;;;;;;1.08;0.35;;;;;;;27.01;16.74;97277.59;6293666;28;20463;-66
2023/10/19 07:52:14;;;;;;;0.52;0.20;;;;;;;26.92;16.65;97257.13;6293082;28;20523;-67
2023/10/19 07:55:24;;;;;;;0.20;0.15;;;;;;;26.22;17.50;97251.41;6296913;28;20047;-66
2023/10/19 07:58:28;;;;;;;0.95;0.32;;;;;;;26.32;17.33;97245.69;6297029;28;20155;-67
2023/10/19 08:01:33;;;;;;;0.77;0.43;;;;;;;27.43;16.46;97248.88;6297166;28;20431;-67
2023/10/19 08:04:34;;;;;;;1.67;0.68;;;;;;;27.67;15.91;97239.47;6279582;28;20392;-66
2023/10/19 08:07:45;;;;;;;0.35;0.30;;;;;;;28.03;15.76;97250.13;6296880;28;20431;-66
2023/10/19 08:10:49;;;;;;;1.45;0.43;;;;;;;26.22;16.83;97245.16;6280193;28;20044;-67
2023/10/19 08:13:55;;;;;;;2.78;1.35;;;;;;;26.68;16.87;97229.50;6297677;28;20051;-67
2023/10/19 08:17:04;;;;;;;1.80;0.70;;;;;;;26.74;16.60;97242.22;6297378;28;20036;-66
2023/10/19 08:20:22;;;;;;;1.27;0.45;;;;;;;25.50;17.49;97233.16;6297643;28;20530;-66
2023/10/19 08:23:28;;;;;;;0.50;0.25;;;;;;;26.03;16.74;97233.09;6297710;28;20044;-66
2023/10/19 08:26:29;;;;;;;0.82;0.52;;;;;;;27.15;16.11;97238.88;6296578;28;20059;-67
2023/10/19 08:29:31;;;;;;;0.77;0.43;;;;;;;26.66;16.44;97236.94;6296867;28;20045;-66
2023/10/19 08:32:33;;;;;;;1.05;0.40;;;;;;;26.85;16.62;97252.50;6296258;28;20466;-67
2023/10/19 08:35:35;;;;;;;0.65;0.20;;;;;;;27.01;16.11;97256.84;6278810;28;20558;-67
2023/10/19 08:38:40;;;;;;;0.40;0.20;;;;;;;24.76;17.64;97268.81;6297189;28;20044;-66
2023/10/19 08:41:43;;;;;;;0.43;0.20;;;;;;;23.74;18.68;97271.47;6296379;28;20048;-66
2023/10/19 08:44:46;;;;;;;1.92;0.40;;;;;;;21.91;20.35;97276.97;6296022;28;20140;-67
2023/10/19 08:47:59;;;;;;;1.58;0.30;;;;;;;23.72;18.76;97273.50;6296178;28;20102;-66
2023/10/19 08:51:06;;;;;;;0.43;0.35;;;;;;;23.27;18.90;97269.53;6296206;28;20052;-67
2023/10/19 08:54:10;;;;;;;0.20;0.20;;;;;;;20.44;21.69;97265.13;6296054;28;20681;-67
2023/10/19 08:57:14;;;;;;;1.48;0.30;;;;;;;21.04;21.27;97270.69;6296026;28;20064;-67
2023/10/19 09:00:18;;;;;;;0.95;0.50;;;;;;;21.35;20.67;97285.47;6295972;28;20053;-66
2023/10/19 09:03:21;;;;;;;0.40;0.30;;;;;;;20.03;21.84;97271.84;6296601;28;20048;-68
2023/10/19 09:06:25;;;;;;;0.38;0.30;;;;;;;19.97;21.99;97270.59;6295651;28;20044;-66
2023/10/19 09:09:32;;;;;;;0.98;0.45;;;;;;;18.69;23.43;97255.03;6296596;28;20071;-67
2023/10/19 09:12:34;;;;;;;0.38;0.20;;;;;;;19.39;22.91;97249.44;6295772;28;20135;-66
2023/10/19 09:15:39;;;;;;;1.55;0.22;;;;;;;20.00;22.40;97251.59;6295286;28;20056;-67
2023/10/19 09:18:41;;;;;;;1.13;0.30;;;;;;;22.33;20.49;97249.31;6295316;28;20058;-67
2023/10/19 09:21:47;;;;;;;0.45;0.20;;;;;;;24.64;18.28;97260.31;6295924;28;20044;-67
2023/10/19 09:24:55;;;;;;;0.82;0.20;;;;;;;25.60;17.10;97247.22;6295282;28;20055;-67
2023/10/19 09:27:57;;;;;;;0.40;0.20;;;;;;;25.38;17.68;97243.56;6294922;28;20049;-66
2023/10/19 09:31:05;;;;;;;0.75;0.38;;;;;;;25.49;17.18;97251.19;6295900;28;20499;-66
2023/10/19 09:34:11;;;;;;;0.40;0.30;;;;;;;25.43;17.41;97257.34;6295248;28;20040;-68
2023/10/19 09:37:16;;;;;;;0.88;0.40;;;;;;;26.37;17.12;97259.44;6295046;28;20048;-68
2023/10/19 09:40:22;;;;;;;0.80;0.30;;;;;;;26.51;16.37;97265.88;6295489;28;20052;-67
2023/10/19 09:43:34;;;;;;;0.70;0.40;;;;;;;26.34;16.74;97257.97;6276832;28;20055;-67
2023/10/19 09:46:39;;;;;;;1.58;0.65;;;;;;;25.58;16.63;97269.97;6294871;28;20409;-66
2023/10/19 09:49:45;;;;;;;0.90;0.43;;;;;;;25.21;17.29;97269.81;6295002;28;20052;-66
2023/10/19 09:52:48;;;;;;;0.60;0.40;;;;;;;25.22;17.40;97270.66;6294388;28;20056;-67
2023/10/19 09:55:51;;;;;;;;;;;;;;;25.90;16.80;97272.38;6294174;28;20068;-67
2023/10/19 09:59:01;;;;;;;7.25;4.68;;;;;;;25.14;17.38;97274.28;6277758;28;20318;-67
2023/10/19 10:02:13;;;;;;;3.40;2.13;;;;;;;25.61;17.46;97261.53;6294543;28;20064;-67
2023/10/19 10:05:36;;;;;;;1.38;1.15;;;;;;;26.31;16.74;97263.75;6293999;28;20419;-66
2023/10/19 10:08:42;;;;;;;1.83;1.07;;;;;;;25.44;16.91;97263.56;6294071;28;20048;-67
2023/10/19 10:11:48;;;;;;;1.30;0.30;;;;;;;24.15;18.20;97260.56;6294717;28;20094;-66
2023/10/19 10:15:01;;;;;;;0.60;0.38;;;;;;;24.02;18.23;97284.47;6294725;28;20049;-67
2023/10/19 10:18:13;;;;;;;0.73;0.55;;;;;;;23.57;18.70;97271.66;6293996;28;20080;-67
2023/10/19 10:21:20;;;;;;;0.47;0.30;;;;;;;23.33;18.72;97277.94;6294628;28;20044;-66
2023/10/19 10:24:22;;;;;;;0.90;0.30;;;;;;;23.20;18.71;97273.88;6293987;28;20044;-67
2023/10/19 10:27:30;;;;;;;0.55;0.40;;;;;;;22.59;19.14;97269.78;6294740;28;20044;-67
2023/10/19 10:30:54;;;;;;;0.85;0.40;;;;;;;22.83;19.03;97282.41;6294583;28;20052;-68
2023/10/19 10:34:01;;;;;;;0.38;0.35;;;;;;;22.52;19.31;97284.88;6293978;28;20135;-69
2023/10/19 10:37:07;;;;;;;0.75;0.40;;;;;;;22.13;19.76;97280.03;6293671;28;20057;-67
2023/10/19 10:40:12;;;;;;;0.88;0.65;;;;;;;21.89;19.94;97278.94;6294190;28;20048;-67
2023/10/19 10:43:15;;;;;;;0.82;0.28;;;;;;;19.88;21.63;97263.50;6293379;28;20508;-66
2023/10/19 10:46:17;;;;;;;1.02;0.45;;;;;;;18.17;23.89;97265.94;6293459;28;20186;-67
2023/10/19 10:49:26;;;;;;;1.40;0.90;;;;;;;19.28;23.00;97262.00;6293364;28;20223;-66
2023/10/19 10:52:28;;;;;;;2.00;0.85;;;;;;;20.47;21.96;97270.16;6293038;28;20049;-67
2023/10/19 10:55:36;;;;;;;2.05;1.50;;;;;;;21.43;21.00;97251.59;6293916;28;20048;-69
2023/10/19 10:58:37;;;;;;;1.05;0.63;;;;;;;22.25;20.04;97254.69;6293091;28;20455;-66
2023/10/19 11:01:44;;;;;;;0.52;0.38;;;;;;;21.76;20.14;97257.13;6293617;28;20049;-67
2023/10/19 11:04:48;;;;;;;0.63;0.22;;;;;;;20.76;21.03;97266.44;6293153;28;20045;-66
2023/10/19 11:08:07;;;;;;;0.30;0.20;;;;;;;20.10;21.64;97256.91;6292560;28;20048;-66
2023/10/19 11:11:13;;;;;;;0.47;0.30;;;;;;;19.32;22.36;97272.38;6292833;28;20059;-66
2023/10/19 11:14:21;;;;;;;0.63;0.60;;;;;;;19.02;22.62;97250.22;6294221;28;20536;-68
2023/10/19 11:17:30;;;;;;;0.30;0.30;;;;;;;18.75;23.04;97270.47;6293812;28;20048;-67
2023/10/19 11:20:34;;;;;;;0.60;0.30;;;;;;;18.36;23.59;97269.59;6293667;28;20067;-66
2023/10/19 11:23:36;;;;;;;0.73;0.35;;;;;;;18.16;23.62;97268.72;6293865;28;20106;-67
2023/10/19 11:26:40;;;;;;;0.40;0.30;;;;;;;17.86;24.13;97273.13;6292895;28;20053;-66
2023/10/19 11:29:58;;;;;;;0.73;0.40;;;;;;;17.69;24.26;97257.75;6296123;28;20052;-66
2023/10/19 11:33:05;;;;;;;0.20;0.20;;;;;;;17.29;24.56;97263.84;6298451;28;20048;-67
2023/10/19 11:36:12;;;;;;;0.32;0.32;;;;;;;16.75;25.45;97264.88;6297221;28;20048;-67
2023/10/19 11:39:19;;;;;;;1.60;0.52;;;;;;;16.92;25.62;97267.00;6298331;28;20454;-67
2023/10/19 11:42:20;;;;;;;0.52;0.50;;;;;;;17.03;25.50;97263.44;6296908;28;20053;-66
2023/10/19 11:45:25;;;;;;;0.30;0.30;;;;;;;16.68;25.70;97269.88;6297496;28;20044;-66
2023/10/19 11:48:29;;;;;;;3.80;0.57;;;;;;;16.25;26.19;97252.19;6297233;28;20138;-66
2023/10/19 11:51:31;;;;;;;1.20;0.57;;;;;;;15.98;26.50;97265.88;6297246;28;20044;-67
2023/10/19 11:54:35;;;;;;;0.85;0.52;;;;;;;15.82;26.92;97265.41;6296965;28;20044;-67
2023/10/19 11:57:37;;;;;;;1.38;0.90;;;;;;;16.05;26.59;97255.59;6262929;28;20135;-67
2023/10/19 12:00:38;;;;;;;0.75;0.70;;;;;;;15.82;26.98;97268.03;6279654;28;20797;-67
2023/10/19 12:03:45;;;;;;;1.15;0.82;;;;;;;15.71;27.16;97255.66;6278867;28;20049;-67
2023/10/19 12:06:53;;;;;;;2.78;1.58;;;;;;;15.15;28.00;97256.44;6297883;28;20125;-67
2023/10/19 12:10:03;;;;;;;1.60;1.30;;;;;;;14.62;28.42;97253.44;6296775;28;20460;-67
2023/10/19 12:13:07;;;;;;;3.78;1.65;;;;;;;13.90;29.53;97256.91;6296545;28;20135;-67
2023/10/19 12:16:17;;;;;;;2.38;1.70;;;;;;;12.70;31.54;97253.78;6297562;28;20039;-67
2023/10/19 12:19:22;;;;;;;2.35;1.77;;;;;;;12.13;32.72;97249.63;6297362;28;20127;-68
2023/10/19 12:22:28;;;;;;;1.40;1.30;;;;;;;12.18;32.97;97256.41;6296276;28;20061;-66
2023/10/19 12:25:32;;;;;;;1.77;1.20;;;;;;;12.24;32.92;97250.72;6297435;28;20048;-66
2023/10/19 12:28:38;;;;;;;;;;;;;;;12.09;33.00;97253.41;6297358;28;20048;-67
2023/10/19 12:31:39;;;;;;;1.58;1.48;;;;;;;11.90;33.43;97261.66;6297077;28;19942;-67
2023/10/19 12:34:41;;;;;;;1.90;1.33;;;;;;;11.33;34.48;97263.50;6295796;28;20055;-68
2023/10/19 12:37:51;;;;;;;2.17;1.50;;;;;;;10.86;35.17;97260.16;6296147;28;20053;-67
2023/10/19 12:40:55;;;;;;;3.08;1.38;;;;;;;10.42;36.04;97257.56;6295303;28;20052;-68
2023/10/19 12:44:07;;;;;;;3.50;1.10;;;;;;;10.02;36.80;97260.66;6296232;28;20056;-69
2023/10/19 12:47:17;;;;;;;1.48;0.90;;;;;;;9.82;37.04;97256.50;6295699;28;20134;-66
2023/10/19 12:50:22;;;;;;;2.47;1.20;;;;;;;9.61;37.88;97257.69;6296656;28;20119;-67
2023/10/19 12:53:24;;;;;;;1.50;1.00;;;;;;;9.43;38.07;97254.28;6295986;28;20052;-67
2023/10/19 12:56:33;;;;;;;3.92;0.98;;;;;;;9.16;38.68;97257.44;6279026;28;20442;-68
2023/10/19 12:59:39;;;;;;;2.17;1.20;;;;;;;8.85;39.38;97266.06;6296075;28;20538;-67
2023/10/19 13:02:43;;;;;;;3.33;2.10;;;;;;;8.86;39.77;97259.91;6296164;28;20522;-68
2023/10/19 13:05:45;;;;;;;2.15;1.33;;;;;;;8.67;39.90;97264.41;6277840;28;20522;-67
2023/10/19 13:08:49;;;;;;;3.50;1.75;;;;;;;8.59;40.27;97271.81;6294855;28;20059;-68
2023/10/19 13:11:51;;;;;;;3.45;1.70;;;;;;;8.53;40.48;97268.56;6295220;28;20099;-67
2023/10/19 13:14:57;;;;;;;3.13;1.23;;;;;;;8.39;41.02;97273.66;6296290;28;20048;-66
2023/10/19 13:18:05;;;;;;;4.97;2.92;;;;;;;8.14;41.33;97281.00;6277855;28;20178;-68
2023/10/19 13:21:21;;;;;;;4.97;1.92;;;;;;;8.06;41.65;97273.50;6277540;28;20056;-68
2023/10/19 13:24:26;;;;;;;7.45;1.88;;;;;;;7.69;42.21;97279.66;6295342;28;20052;-67
2023/10/19 13:27:31;;;;;;;3.20;1.80;;;;;;;7.50;42.95;97280.50;6295361;28;20047;-68
2023/10/19 13:30:38;;;;;;;2.17;1.20;;;;;;;7.67;42.87;97291.94;6294482;28;20515;-67
2023/10/19 13:33:46;;;;;;;3.55;1.52;;;;;;;7.55;42.71;97291.59;6295950;28;20052;-66
2023/10/19 13:36:52;;;;;;;4.32;1.10;;;;;;;7.36;43.09;97282.88;6295726;28;20041;-67
2023/10/19 13:39:59;;;;;;;4.68;1.90;;;;;;;7.25;43.31;97285.16;6278845;28;20060;-68
2023/10/19 13:43:04;;;;;;;4.00;2.05;;;;;;;7.30;43.44;97285.78;6278268;28;20500;-68
2023/10/19 13:46:23;;;;;;;5.20;2.60;;;;;;;7.18;43.73;97288.03;6294807;28;20052;-68
2023/10/19 13:49:27;;;;;;;8.07;3.60;;;;;;;7.14;43.68;97294.34;6294758;28;20057;-68
2023/10/19 13:52:32;;;;;;;6.32;3.33;;;;;;;6.95;43.99;97298.66;6295017;28;20088;-68
2023/10/19 13:55:36;;;;;;;6.35;2.70;;;;;;;6.90;44.25;97296.25;6294600;28;20052;-67
2023/10/19 13:58:42;;;;;;;7.95;4.25;;;;;;;6.73;44.72;97291.75;6294640;28;20048;-68
2023/10/19 14:01:49;;;;;;;4.60;2.50;;;;;;;6.68;44.72;97295.47;6295101;28;20040;-68
2023/10/19 14:04:54;;;;;;;4.88;1.48;;;;;;;6.68;44.68;97301.56;6295153;28;20515;-68
2023/10/19 14:07:56;;;;;;;3.35;1.40;;;;;;;6.51;44.93;97310.13;6293496;28;20504;-68
2023/10/19 14:11:06;;;;;;;6.78;1.63;;;;;;;6.24;45.84;97301.63;6295172;28;20040;-67
2023/10/19 14:14:11;;;;;;;3.88;1.30;;;;;;;6.36;45.75;97296.81;6294732;28;20041;-68
2023/10/19 14:17:13;;;;;;;4.05;1.30;;;;;;;6.09;45.89;97302.28;6294056;28;20052;-68
2023/10/19 14:20:17;;;;;;;2.65;1.23;;;;;;;6.11;46.18;97310.88;6293717;28;20052;-68
2023/10/19 14:23:24;;;;;;;3.63;1.60;;;;;;;5.85;46.33;97294.44;6294413;28;20044;-68
2023/10/19 14:26:26;;;;;;;3.75;1.17;;;;;;;5.85;46.79;97304.88;6275702;28;20135;-68
2023/10/19 14:29:30;;;;;;;1.52;1.00;;;;;;;5.99;46.39;97316.59;6293791;28;20051;-67
2023/10/19 14:32:31;;;;;;;1.98;0.85;;;;;;;5.74;46.70;97303.59;6293782;28;20056;-67
2023/10/19 14:35:36;;;;;;;1.50;0.70;;;;;;;5.89;46.75;97310.88;6293289;28;20127;-68
2023/10/19 14:38:43;;;;;;;2.65;0.90;;;;;;;5.69;46.85;97314.25;6294365;28;20508;-67
2023/10/19 14:41:47;;;;;;;2.67;0.85;;;;;;;5.53;47.70;97307.91;6294186;28;20145;-67
2023/10/19 14:44:53;;;;;;;2.92;1.27;;;;;;;5.49;47.82;97306.28;6294377;28;20488;-67
2023/10/19 14:47:59;;;;;;;2.33;0.90;;;;;;;5.36;47.90;97316.34;6294181;28;20040;-68
2023/10/19 14:51:05;;;;;;;;;;;;;;;5.32;48.12;97315.63;6293522;28;20063;-67